createdAt,value
2023-09-04T00:02:27.437Z,17.52
2023-09-04T00:05:29.157Z,17.49
2023-09-04T00:08:30.783Z,17.47
2023-09-04T00:11:32.416Z,17.52
2023-09-04T00:14:33.988Z,17.52
2023-09-04T00:17:35.664Z,17.48
2023-09-04T00:20:37.298Z,17.48
2023-09-04T00:23:38.851Z,17.47
2023-09-04T00:26:40.472Z,17.48
2023-09-04T00:29:42.025Z,17.43
2023-09-04T00:32:43.651Z,17.43
2023-09-04T00:35:45.280Z,17.43
2023-09-04T00:38:46.826Z,17.38
2023-09-04T00:41:48.397Z,17.33
2023-09-04T00:44:50.000Z,17.35
2023-09-04T00:47:51.614Z,17.42
2023-09-04T00:50:53.257Z,17.41
2023-09-04T00:53:54.824Z,17.39
2023-09-04T00:56:56.460Z,17.37
2023-09-04T00:59:58.035Z,17.38
2023-09-04T01:02:59.660Z,17.40
2023-09-04T01:06:01.273Z,17.38
2023-09-04T01:09:02.853Z,17.36
2023-09-04T01:12:04.486Z,17.31
2023-09-04T01:15:06.053Z,17.30
2023-09-04T01:18:07.739Z,17.25
2023-09-04T01:21:09.336Z,17.23
2023-09-04T01:24:10.947Z,17.24
2023-09-04T01:27:12.531Z,17.23
2023-09-04T01:30:14.183Z,17.24
2023-09-04T01:33:18.882Z,17.25
2023-09-04T01:36:20.507Z,17.24
2023-09-04T01:39:22.076Z,17.22
2023-09-04T01:42:23.726Z,17.23
2023-09-04T01:45:25.288Z,17.26
2023-09-04T01:48:26.965Z,17.28
2023-09-04T01:51:28.570Z,17.25
2023-09-04T01:54:30.172Z,17.19
2023-09-04T01:57:31.742Z,17.14
2023-09-04T02:00:33.307Z,17.10
2023-09-04T02:03:35.006Z,17.11
2023-09-04T02:06:36.701Z,17.06
2023-09-04T02:09:38.313Z,17.04
2023-09-04T02:12:39.922Z,17.05
2023-09-04T02:15:41.575Z,17.04
2023-09-04T02:18:43.138Z,17.04
2023-09-04T02:21:44.780Z,17.05
2023-09-04T02:24:46.400Z,16.99
2023-09-04T02:27:48.102Z,16.98
2023-09-04T02:30:49.642Z,17.02
2023-09-04T02:33:52.366Z,16.98
2023-09-04T02:36:53.961Z,16.96
2023-09-04T02:39:55.494Z,16.93
2023-09-04T02:42:57.168Z,16.92
2023-09-04T02:45:59.032Z,16.94
2023-09-04T02:49:00.706Z,16.93
2023-09-04T02:52:02.269Z,16.92
2023-09-04T02:55:03.865Z,16.95
2023-09-04T02:58:05.464Z,16.95
2023-09-04T03:01:07.105Z,16.94
2023-09-04T03:04:08.642Z,16.94
2023-09-04T03:07:10.246Z,16.94
2023-09-04T03:10:11.819Z,16.93
2023-09-04T03:13:13.414Z,16.92
2023-09-04T03:16:15.079Z,16.93
2023-09-04T03:19:16.664Z,16.94
2023-09-04T03:22:18.211Z,16.96
2023-09-04T03:25:19.836Z,16.94
2023-09-04T03:28:21.576Z,16.86
2023-09-04T03:31:23.438Z,16.83
2023-09-04T03:34:25.124Z,16.79
2023-09-04T03:37:26.659Z,16.78
2023-09-04T03:40:28.266Z,16.75
2023-09-04T03:43:29.880Z,16.73
2023-09-04T03:46:31.494Z,16.81
2023-09-04T03:49:35.619Z,16.79
2023-09-04T03:52:37.195Z,16.75
2023-09-04T03:55:38.776Z,16.71
2023-09-04T03:58:40.383Z,16.69
2023-09-04T04:01:41.950Z,16.69
2023-09-04T04:04:43.541Z,16.72
2023-09-04T04:07:45.153Z,16.72
2023-09-04T04:10:46.701Z,16.67
2023-09-04T04:13:48.310Z,16.67
2023-09-04T04:16:49.883Z,16.65
2023-09-04T04:19:51.503Z,16.63
2023-09-04T04:22:53.118Z,16.62
2023-09-04T04:25:54.714Z,16.65
2023-09-04T04:28:56.397Z,16.71
2023-09-04T04:31:58.021Z,16.75
2023-09-04T04:34:59.664Z,16.74
2023-09-04T04:38:01.254Z,16.72
2023-09-04T04:41:02.885Z,16.67
2023-09-04T04:44:04.445Z,16.66
2023-09-04T04:47:06.057Z,16.60
2023-09-04T04:50:07.633Z,16.60
2023-09-04T04:53:09.257Z,16.58
2023-09-04T04:56:10.817Z,16.57
2023-09-04T04:59:12.442Z,16.60
2023-09-04T05:02:14.027Z,16.61
2023-09-04T05:05:15.592Z,16.60
2023-09-04T05:08:17.249Z,16.59
2023-09-04T05:11:18.851Z,16.54
2023-09-04T05:14:20.518Z,16.51
2023-09-04T05:17:22.139Z,16.49
2023-09-04T05:20:23.735Z,16.43
2023-09-04T05:23:25.342Z,16.52
2023-09-04T05:26:26.907Z,16.55
2023-09-04T05:29:28.481Z,16.55
2023-09-04T05:32:30.104Z,16.54
2023-09-04T05:35:31.707Z,16.55
2023-09-04T05:38:33.328Z,16.58
2023-09-04T05:41:34.850Z,16.57
2023-09-04T05:44:36.397Z,16.53
2023-09-04T05:47:37.967Z,16.54
2023-09-04T05:50:39.604Z,16.59
2023-09-04T05:53:41.268Z,16.61
2023-09-04T05:56:42.871Z,16.54
2023-09-04T05:59:44.436Z,16.52
2023-09-04T06:02:46.018Z,16.61
2023-09-04T06:05:47.590Z,16.60
2023-09-04T06:08:49.170Z,16.67
2023-09-04T06:11:50.716Z,16.76
2023-09-04T06:14:53.789Z,16.71
2023-09-04T06:17:55.529Z,16.70
2023-09-04T06:20:57.153Z,16.68
2023-09-04T06:23:58.753Z,16.72
2023-09-04T06:27:00.375Z,16.78
2023-09-04T06:30:02.019Z,16.69
2023-09-04T06:33:03.662Z,16.70
2023-09-04T06:36:05.249Z,16.73
2023-09-04T06:39:06.860Z,16.75
2023-09-04T06:42:08.430Z,16.82
2023-09-04T06:45:10.009Z,16.80
2023-09-04T06:48:11.611Z,16.80
2023-09-04T06:51:13.244Z,16.79
2023-09-04T06:54:14.868Z,16.84
2023-09-04T06:57:16.480Z,16.93
2023-09-04T07:00:18.078Z,16.98
2023-09-04T07:03:19.732Z,16.97
2023-09-04T07:06:21.328Z,16.99
2023-09-04T07:09:22.934Z,17.05
2023-09-04T07:12:24.472Z,17.08
2023-09-04T07:15:26.055Z,17.12
2023-09-04T07:18:27.621Z,17.10
2023-09-04T07:21:29.199Z,17.15
2023-09-04T07:24:30.778Z,17.27
2023-09-04T07:27:32.382Z,17.40
2023-09-04T07:30:33.920Z,17.57
2023-09-04T07:33:35.556Z,17.61
2023-09-04T07:36:37.336Z,17.72
2023-09-04T07:39:38.952Z,17.83
2023-09-04T07:42:40.554Z,17.79
2023-09-04T07:45:42.169Z,17.90
2023-09-04T07:48:43.778Z,17.97
2023-09-04T07:51:45.355Z,18.01
2023-09-04T07:54:46.977Z,18.03
2023-09-04T07:57:48.613Z,18.00
2023-09-04T08:00:50.286Z,18.09
2023-09-04T08:03:51.948Z,18.09
2023-09-04T08:06:53.595Z,18.17
2023-09-04T08:09:55.183Z,18.07
2023-09-04T08:12:57.396Z,18.07
2023-09-04T08:15:58.946Z,18.16
2023-09-04T08:19:00.595Z,18.11
2023-09-04T08:22:02.272Z,18.16
2023-09-04T08:25:03.815Z,18.23
2023-09-04T08:28:05.390Z,18.22
2023-09-04T08:31:07.040Z,18.17
2023-09-04T08:34:08.685Z,18.14
2023-09-04T08:37:10.340Z,18.21
2023-09-04T08:40:12.010Z,18.23
2023-09-04T08:43:13.630Z,18.24
2023-09-04T08:52:36.871Z,18.30
2023-09-04T08:55:38.489Z,18.25
2023-09-04T08:58:40.126Z,18.26
2023-09-04T09:01:41.735Z,18.24
2023-09-04T09:04:43.266Z,18.24
2023-09-04T09:07:44.865Z,18.27
2023-09-04T09:10:46.520Z,18.30
2023-09-04T09:13:48.296Z,18.31
2023-09-04T09:16:49.932Z,18.23
2023-09-04T09:19:51.635Z,18.30
2023-09-04T09:22:53.291Z,18.35
2023-09-04T09:25:54.880Z,18.31
2023-09-04T09:28:56.508Z,18.35
2023-09-04T09:31:58.138Z,18.29
2023-09-04T09:34:59.818Z,18.38
2023-09-04T09:38:01.460Z,18.43
2023-09-04T09:41:03.096Z,18.33
2023-09-04T09:44:04.715Z,18.43
2023-09-04T09:47:06.342Z,18.38
2023-09-04T09:50:07.908Z,18.37
2023-09-04T09:53:09.606Z,18.40
2023-09-04T09:56:11.208Z,18.43
2023-09-04T09:59:12.846Z,18.44
2023-09-04T10:02:14.490Z,18.38
2023-09-04T10:05:16.129Z,18.45
2023-09-04T10:08:17.782Z,18.47
2023-09-04T10:11:19.338Z,18.55
2023-09-04T10:14:20.909Z,18.48
2023-09-04T10:17:22.515Z,18.42
2023-09-04T10:20:24.118Z,18.49
2023-09-04T10:23:25.713Z,18.56
2023-09-04T10:26:27.301Z,18.49
2023-09-04T10:29:28.873Z,18.56
2023-09-04T10:32:30.540Z,18.52
2023-09-04T10:35:32.138Z,18.57
2023-09-04T10:38:33.689Z,18.56
2023-09-04T10:41:35.285Z,18.48
2023-09-04T10:44:39.752Z,18.56
2023-09-04T10:47:41.350Z,18.53
2023-09-04T10:50:42.953Z,18.46
2023-09-04T10:53:44.547Z,18.42
2023-09-04T10:56:46.206Z,18.56
2023-09-04T10:59:47.803Z,18.66
2023-09-04T11:02:49.402Z,18.53
2023-09-04T11:05:51.008Z,18.64
2023-09-04T11:08:52.703Z,18.59
2023-09-04T11:11:54.377Z,18.59
2023-09-04T11:14:55.988Z,18.57
2023-09-04T11:17:57.656Z,18.53
2023-09-04T11:20:59.267Z,18.57
2023-09-04T11:24:00.866Z,18.58
2023-09-04T11:27:02.420Z,18.61
2023-09-04T11:30:04.037Z,18.45
2023-09-04T11:33:05.660Z,18.58
2023-09-04T11:36:07.354Z,18.54
2023-09-04T11:39:08.994Z,18.49
2023-09-04T11:42:10.580Z,18.58
2023-09-04T11:45:12.188Z,18.53
2023-09-04T11:48:13.778Z,18.59
2023-09-04T11:51:15.396Z,18.67
2023-09-04T11:54:16.967Z,18.62
2023-09-04T11:57:18.588Z,18.54
2023-09-04T12:00:20.170Z,18.53
2023-09-04T12:03:21.793Z,18.62
2023-09-04T12:06:23.397Z,18.52
2023-09-04T12:09:24.983Z,18.50
2023-09-04T12:12:26.608Z,18.57
2023-09-04T12:15:28.240Z,18.54
2023-09-04T12:18:29.827Z,18.60
2023-09-04T12:21:31.436Z,18.64
2023-09-04T12:24:33.021Z,18.67
2023-09-04T12:27:34.693Z,18.65
2023-09-04T12:30:36.325Z,18.60
2023-09-04T12:33:37.931Z,18.56
2023-09-04T12:36:39.568Z,18.46
2023-09-04T12:39:41.163Z,18.50
2023-09-04T12:42:42.827Z,18.50
2023-09-04T12:45:44.396Z,18.46
2023-09-04T12:48:46.176Z,18.55
2023-09-04T12:51:47.924Z,18.53
2023-09-04T12:54:49.604Z,18.41
2023-09-04T12:57:51.209Z,18.39
2023-09-04T13:00:54.875Z,18.42
2023-09-04T13:03:57.781Z,18.62
2023-09-04T13:07:01.125Z,18.58
2023-09-04T13:10:04.204Z,18.53
2023-09-04T13:13:05.929Z,18.60
2023-09-04T13:16:07.614Z,18.71
2023-09-04T13:19:09.236Z,18.64
2023-09-04T13:22:10.821Z,18.58
2023-09-04T13:25:12.447Z,18.57
2023-09-04T13:28:14.029Z,18.60
2023-09-04T13:31:15.653Z,18.64
2023-09-04T13:34:17.312Z,18.66
2023-09-04T13:37:18.913Z,18.69
2023-09-04T13:40:20.486Z,18.77
2023-09-04T13:43:22.096Z,18.65
2023-09-04T13:46:23.694Z,18.59
2023-09-04T13:49:25.263Z,18.54
2023-09-04T13:52:26.871Z,18.60
2023-09-04T13:55:28.427Z,18.64
2023-09-04T13:58:30.104Z,18.68
2023-09-04T14:01:31.706Z,18.59
2023-09-04T14:04:33.422Z,18.61
2023-09-04T14:07:35.038Z,18.57
2023-09-04T14:10:36.618Z,18.58
2023-09-04T14:13:38.170Z,18.52
2023-09-04T14:16:39.914Z,18.57
2023-09-04T14:19:41.559Z,18.50
2023-09-04T14:22:43.182Z,18.44
2023-09-04T14:25:44.729Z,18.51
2023-09-04T14:28:46.582Z,18.53
2023-09-04T14:31:48.198Z,18.58
2023-09-04T14:34:49.929Z,18.58
2023-09-04T14:37:51.558Z,18.49
2023-09-04T14:40:53.154Z,18.60
2023-09-04T14:43:54.729Z,18.56
2023-09-04T14:46:56.373Z,18.56
2023-09-04T14:49:58.024Z,18.59
2023-09-04T14:52:59.635Z,18.60
2023-09-04T14:56:01.233Z,18.61
2023-09-04T14:59:02.820Z,18.64
2023-09-04T15:02:04.517Z,18.59
2023-09-04T15:05:06.142Z,18.62
2023-09-04T15:08:07.791Z,18.63
2023-09-04T15:11:14.556Z,18.73
2023-09-04T15:14:18.081Z,18.64
2023-09-04T15:17:19.646Z,18.63
2023-09-04T15:20:21.246Z,18.65
2023-09-04T15:23:23.113Z,18.61
2023-09-04T15:26:25.026Z,18.62
2023-09-04T15:29:26.581Z,18.65
2023-09-04T15:32:28.225Z,18.53
2023-09-04T15:35:29.776Z,18.60
2023-09-04T15:38:31.330Z,18.66
2023-09-04T15:41:32.903Z,18.73
2023-09-04T15:44:34.508Z,18.75
2023-09-04T15:47:36.171Z,18.68
2023-09-04T15:50:37.770Z,18.69
2023-09-04T15:53:39.372Z,18.69
2023-09-04T15:56:41.161Z,18.62
2023-09-04T15:59:42.762Z,18.64
2023-09-04T16:02:44.449Z,18.63
2023-09-04T16:05:46.130Z,18.64
2023-09-04T16:08:47.711Z,18.58
2023-09-04T16:11:49.317Z,18.62
2023-09-04T16:14:50.951Z,18.65
2023-09-04T16:17:52.602Z,18.63
2023-09-04T16:20:54.227Z,18.64
2023-09-04T16:23:55.818Z,18.71
2023-09-04T16:26:57.404Z,18.59
2023-09-04T16:29:59.005Z,18.65
2023-09-04T16:33:00.638Z,18.68
2023-09-04T16:36:02.283Z,18.74
2023-09-04T16:39:03.888Z,18.66
2023-09-04T16:42:05.480Z,18.69
2023-09-04T16:45:07.112Z,18.67
2023-09-04T16:48:08.755Z,18.64
2023-09-04T16:51:10.419Z,18.66
2023-09-04T16:54:12.018Z,18.65
2023-09-04T16:57:13.606Z,18.70
2023-09-04T17:00:15.201Z,18.66
2023-09-04T17:03:16.875Z,18.64
2023-09-04T17:06:18.545Z,18.70
2023-09-04T17:09:20.121Z,18.71
2023-09-04T17:12:21.740Z,18.71
2023-09-04T17:15:23.324Z,18.72
2023-09-04T17:18:25.051Z,18.71
2023-09-04T17:21:26.801Z,18.72
2023-09-04T17:24:28.393Z,18.73
2023-09-04T17:27:30.837Z,18.75
2023-09-04T17:30:32.380Z,18.73
2023-09-04T17:33:33.978Z,18.77
2023-09-04T17:36:35.616Z,18.72
2023-09-04T17:39:37.159Z,18.78
2023-09-04T17:42:38.772Z,18.78
2023-09-04T17:45:40.396Z,18.77
2023-09-04T17:48:42.206Z,18.78
2023-09-04T17:51:43.807Z,18.81
2023-09-04T17:54:45.351Z,18.82
2023-09-04T17:57:49.527Z,18.83
2023-09-04T18:00:51.114Z,18.84
2023-09-04T18:03:52.807Z,18.84
2023-09-04T18:06:54.431Z,18.87
2023-09-04T18:09:56.029Z,18.87
2023-09-04T18:12:57.598Z,18.90
2023-09-04T18:15:59.242Z,18.89
2023-09-04T18:19:00.920Z,18.90
2023-09-04T18:22:03.798Z,18.92
2023-09-04T18:25:05.635Z,18.94
2023-09-04T18:28:07.277Z,18.95
2023-09-04T18:31:08.856Z,18.96
2023-09-04T18:34:10.518Z,18.96
2023-09-04T18:37:12.164Z,18.98
2023-09-04T18:40:13.760Z,18.97
2023-09-04T18:43:15.367Z,18.98
2023-09-04T18:46:17.416Z,18.97
2023-09-04T18:49:19.830Z,18.98
2023-09-04T18:52:21.412Z,18.98
2023-09-04T18:55:22.988Z,18.99
2023-09-04T18:58:27.517Z,18.98
2023-09-04T19:01:29.579Z,18.98
2023-09-04T19:04:31.159Z,18.98
2023-09-04T19:07:32.745Z,18.97
2023-09-04T19:10:34.365Z,18.97
2023-09-04T19:13:35.970Z,18.96
2023-09-04T19:16:37.634Z,18.96
2023-09-04T19:19:39.255Z,18.96
2023-09-04T19:22:40.785Z,18.95
2023-09-04T19:25:42.429Z,18.94
2023-09-04T19:28:50.628Z,18.94
2023-09-04T19:31:53.360Z,18.93
2023-09-04T19:34:54.999Z,18.93
2023-09-04T19:37:56.583Z,18.92
2023-09-04T19:40:58.199Z,18.92
2023-09-04T19:43:59.821Z,18.91
2023-09-04T19:47:01.384Z,18.89
2023-09-04T19:50:02.982Z,18.87
2023-09-04T19:53:04.511Z,18.84
2023-09-04T19:56:06.103Z,18.85
2023-09-04T19:59:07.667Z,18.85
2023-09-04T20:02:09.816Z,18.84
2023-09-04T20:05:11.556Z,18.80
2023-09-04T20:08:13.130Z,18.80
2023-09-04T20:11:14.772Z,18.80
2023-09-04T20:14:16.324Z,18.78
2023-09-04T20:17:17.915Z,18.78
2023-09-04T20:20:19.482Z,18.79
2023-09-04T20:23:21.093Z,18.76
2023-09-04T20:26:24.709Z,18.76
2023-09-04T20:29:28.314Z,18.71
2023-09-04T20:32:30.001Z,18.70
2023-09-04T20:35:31.700Z,18.72
2023-09-04T20:38:33.305Z,18.67
2023-09-04T20:41:35.097Z,18.66
2023-09-04T20:44:36.683Z,18.59
2023-09-04T20:47:38.276Z,18.64
2023-09-04T20:50:39.878Z,18.61
2023-09-04T20:53:41.488Z,18.63
2023-09-04T20:56:43.085Z,18.58
2023-09-04T20:59:44.675Z,18.56
2023-09-04T21:02:48.590Z,18.53
2023-09-04T21:05:50.202Z,18.53
2023-09-04T21:08:51.743Z,18.53
2023-09-04T21:11:53.378Z,18.48
2023-09-04T21:14:54.924Z,18.45
2023-09-04T21:17:56.550Z,18.44
2023-09-04T21:20:58.135Z,18.43
2023-09-04T21:23:59.742Z,18.41
2023-09-04T21:27:01.362Z,18.39
2023-09-04T21:30:02.942Z,18.38
2023-09-04T21:33:06.891Z,18.41
2023-09-04T21:36:08.678Z,18.41
2023-09-04T21:39:10.227Z,18.38
2023-09-04T21:42:11.852Z,18.36
2023-09-04T21:45:13.431Z,18.29
2023-09-04T21:48:15.016Z,18.30
2023-09-04T21:51:16.587Z,18.28
2023-09-04T21:54:18.290Z,18.25
2023-09-04T21:57:19.860Z,18.27
2023-09-04T22:00:21.385Z,18.26
2023-09-04T22:03:23.128Z,18.24
2023-09-04T22:06:24.791Z,18.22
2023-09-04T22:09:26.479Z,18.21
2023-09-04T22:12:28.023Z,18.20
2023-09-04T22:15:29.643Z,18.19
2023-09-04T22:18:31.243Z,18.14
2023-09-04T22:21:32.863Z,18.13
2023-09-04T22:24:34.404Z,18.10
2023-09-04T22:27:35.968Z,18.11
2023-09-04T22:30:37.563Z,18.12
2023-09-04T22:33:39.156Z,18.10
2023-09-04T22:36:40.753Z,18.12
2023-09-04T22:39:42.360Z,18.11
2023-09-04T22:42:43.910Z,18.11
2023-09-04T22:45:45.488Z,18.06
2023-09-04T22:48:47.037Z,18.05
2023-09-04T22:51:48.637Z,18.05
2023-09-04T22:54:50.239Z,18.06
2023-09-04T22:57:51.884Z,18.00
2023-09-04T23:00:53.516Z,18.00
2023-09-04T23:03:56.931Z,17.99
2023-09-04T23:06:58.966Z,17.97
2023-09-04T23:10:00.514Z,17.95
2023-09-04T23:13:02.133Z,17.92
2023-09-04T23:16:03.671Z,17.95
2023-09-04T23:19:05.262Z,17.95
2023-09-04T23:22:06.816Z,17.95
2023-09-04T23:25:08.425Z,17.91
2023-09-04T23:28:09.983Z,17.89
2023-09-04T23:31:11.592Z,17.89
2023-09-04T23:34:13.212Z,17.88
2023-09-04T23:37:14.768Z,17.89
2023-09-04T23:40:16.350Z,17.88
2023-09-04T23:43:17.977Z,17.83
2023-09-04T23:46:19.612Z,17.85
2023-09-04T23:49:21.296Z,17.83
2023-09-04T23:52:22.904Z,17.83
2023-09-04T23:55:27.309Z,17.83
2023-09-04T23:58:28.898Z,17.81
